createdAt,value
2019-02-14T00:01:27.946Z,90.60
2019-02-14T00:03:31.669Z,91.00
2019-02-14T00:05:36.037Z,91.00
2019-02-14T00:07:39.807Z,90.50
2019-02-14T00:09:43.550Z,90.70
2019-02-14T00:11:47.267Z,90.20
2019-02-14T00:13:50.952Z,90.40
2019-02-14T00:15:54.679Z,90.90
2019-02-14T00:17:58.516Z,91.30
2019-02-14T00:20:02.261Z,91.70
2019-02-14T00:22:06.051Z,91.70
2019-02-14T00:24:09.789Z,91.80
2019-02-14T00:26:14.000Z,92.00
2019-02-14T00:28:17.722Z,91.70
2019-02-14T00:30:21.289Z,91.70
2019-02-14T00:32:24.920Z,91.90
2019-02-14T00:34:28.517Z,91.60
2019-02-14T00:36:32.187Z,91.30
2019-02-14T00:38:35.906Z,91.70
2019-02-14T00:40:39.607Z,91.70
2019-02-14T00:42:43.275Z,91.60
2019-02-14T00:44:47.182Z,91.80
2019-02-14T00:46:50.914Z,91.60
2019-02-14T00:48:54.613Z,91.40
2019-02-14T00:50:58.230Z,91.20
2019-02-14T00:53:01.912Z,91.40
2019-02-14T00:55:06.714Z,91.20
2019-02-14T00:57:10.421Z,91.30
2019-02-14T00:59:14.096Z,91.40
2019-02-14T01:01:17.828Z,91.60
2019-02-14T01:03:21.612Z,91.40
2019-02-14T01:05:33.151Z,91.40
2019-02-14T01:07:30.827Z,91.10
2019-02-14T01:09:34.425Z,91.00
2019-02-14T01:11:38.157Z,90.90
2019-02-14T01:13:41.855Z,91.20
2019-02-14T01:15:45.677Z,91.30
2019-02-14T01:17:50.107Z,91.30
2019-02-14T01:19:53.773Z,91.50
2019-02-14T01:21:57.483Z,91.70
2019-02-14T01:24:01.221Z,91.70
2019-02-14T01:26:05.092Z,91.50
2019-02-14T01:28:08.741Z,91.80
2019-02-14T01:30:12.555Z,91.40
2019-02-14T01:32:19.715Z,91.40
2019-02-14T01:34:23.499Z,91.40
2019-02-14T01:36:27.228Z,91.30
2019-02-14T01:38:31.087Z,91.50
2019-02-14T01:40:34.833Z,91.80
2019-02-14T01:42:38.684Z,92.50
2019-02-14T01:44:42.720Z,92.40
2019-02-14T01:46:46.377Z,92.30
2019-02-14T01:48:50.077Z,92.40
2019-02-14T01:50:53.734Z,92.60
2019-02-14T01:52:57.552Z,93.20
2019-02-14T01:55:01.332Z,93.20
2019-02-14T01:57:05.146Z,92.90
2019-02-14T01:59:08.767Z,93.30
2019-02-14T02:01:12.483Z,93.40
2019-02-14T02:03:16.119Z,93.30
2019-02-14T02:05:19.927Z,93.60
2019-02-14T02:07:23.588Z,93.70
2019-02-14T02:09:27.365Z,93.90
2019-02-14T02:11:31.201Z,93.80
2019-02-14T02:13:34.892Z,93.70
2019-02-14T02:15:38.541Z,93.30
2019-02-14T02:17:42.240Z,93.30
2019-02-14T02:19:45.913Z,93.10
2019-02-14T02:21:49.669Z,93.10
2019-02-14T02:23:55.576Z,93.10
2019-02-14T02:25:59.334Z,93.20
2019-02-14T02:28:03.341Z,93.10
2019-02-14T02:30:15.034Z,93.00
2019-02-14T02:32:18.611Z,93.00
2019-02-14T02:34:22.409Z,93.00
2019-02-14T02:36:26.229Z,93.00
2019-02-14T02:38:31.290Z,93.00
2019-02-14T02:40:35.055Z,92.90
2019-02-14T02:42:38.632Z,92.70
2019-02-14T02:44:42.320Z,92.60
2019-02-14T02:46:47.542Z,92.90
2019-02-14T02:48:57.188Z,93.10
2019-02-14T02:50:56.592Z,93.10
2019-02-14T02:53:00.181Z,93.30
2019-02-14T02:55:04.424Z,93.30
2019-02-14T02:57:08.045Z,93.60
2019-02-14T02:59:11.720Z,94.00
2019-02-14T03:01:16.976Z,94.10
2019-02-14T03:03:20.769Z,94.70
2019-02-14T03:05:24.519Z,94.40
2019-02-14T03:07:28.237Z,94.70
2019-02-14T03:09:32.063Z,94.70
2019-02-14T03:11:47.437Z,94.80
2019-02-14T03:13:42.109Z,94.60
2019-02-14T03:15:45.945Z,95.00
2019-02-14T03:17:49.715Z,94.90
2019-02-14T03:19:53.356Z,94.90
2019-02-14T03:21:57.028Z,94.90
2019-02-14T03:24:02.279Z,94.80
2019-02-14T03:26:06.285Z,94.90
2019-02-14T03:28:10.459Z,94.90
2019-02-14T03:30:16.110Z,94.50
2019-02-14T03:32:23.516Z,94.40
2019-02-14T03:34:29.831Z,94.90
2019-02-14T03:36:33.716Z,94.90
2019-02-14T03:38:37.614Z,94.60
2019-02-14T03:40:41.282Z,94.50
2019-02-14T03:42:44.950Z,94.60
2019-02-14T03:44:48.729Z,94.60
2019-02-14T03:46:52.615Z,94.80
2019-02-14T03:48:57.796Z,94.40
2019-02-14T03:51:01.850Z,94.40
2019-02-14T03:53:05.580Z,94.40
2019-02-14T03:55:10.493Z,94.40
2019-02-14T03:57:14.296Z,94.00
2019-02-14T03:59:17.995Z,94.10
2019-02-14T04:01:21.724Z,94.10
2019-02-14T04:03:25.345Z,94.10
2019-02-14T04:05:29.181Z,94.10
2019-02-14T04:07:32.842Z,94.30
2019-02-14T04:09:36.627Z,94.40
2019-02-14T04:11:40.271Z,94.70
2019-02-14T04:13:44.107Z,94.60
2019-02-14T04:15:47.753Z,94.60
2019-02-14T04:17:51.450Z,94.60
2019-02-14T04:19:55.137Z,94.40
2019-02-14T04:21:58.802Z,94.10
2019-02-14T04:24:02.524Z,94.30
2019-02-14T04:26:06.269Z,94.30
2019-02-14T04:28:10.078Z,94.20
2019-02-14T04:30:14.570Z,94.70
2019-02-14T04:32:18.202Z,94.70
2019-02-14T04:34:23.036Z,94.80
2019-02-14T04:36:26.694Z,94.70
2019-02-14T04:38:30.373Z,94.50
2019-02-14T04:40:34.121Z,94.70
2019-02-14T04:42:37.829Z,94.80
2019-02-14T04:44:41.650Z,94.70
2019-02-14T04:46:45.295Z,94.70
2019-02-14T04:48:48.989Z,94.50
2019-02-14T04:50:52.689Z,94.50
2019-02-14T04:52:56.345Z,94.60
2019-02-14T04:55:00.312Z,94.50
2019-02-14T04:57:04.032Z,94.50
2019-02-14T04:59:07.834Z,94.70
2019-02-14T05:01:11.625Z,94.30
2019-02-14T05:03:15.439Z,94.50
2019-02-14T05:05:19.345Z,94.70
2019-02-14T05:07:23.052Z,94.30
2019-02-14T05:09:26.877Z,94.20
2019-02-14T05:11:30.534Z,94.20
2019-02-14T05:13:34.213Z,94.20
2019-02-14T05:15:37.911Z,94.30
2019-02-14T05:17:42.003Z,94.00
2019-02-14T05:19:45.574Z,94.10
2019-02-14T05:21:54.089Z,94.00
2019-02-14T05:23:57.767Z,93.70
2019-02-14T05:26:01.476Z,93.60
2019-02-14T05:28:05.118Z,93.70
2019-02-14T05:30:20.666Z,93.70
2019-02-14T05:32:24.001Z,93.90
2019-02-14T05:34:27.630Z,93.80
2019-02-14T05:36:31.271Z,93.70
2019-02-14T05:38:35.162Z,93.90
2019-02-14T05:40:38.903Z,94.00
2019-02-14T05:42:43.377Z,94.00
2019-02-14T05:44:47.183Z,93.90
2019-02-14T05:46:50.923Z,94.50
2019-02-14T05:48:54.706Z,94.70
2019-02-14T05:50:58.526Z,95.00
2019-02-14T05:53:02.519Z,95.40
2019-02-14T05:55:11.016Z,95.50
2019-02-14T05:57:14.824Z,95.80
2019-02-14T05:59:18.707Z,95.70
2019-02-14T06:01:23.057Z,96.00
2019-02-14T06:03:26.897Z,96.40
2019-02-14T06:05:30.786Z,96.50
2019-02-14T06:07:34.422Z,96.10
2019-02-14T06:09:38.249Z,96.40
2019-02-14T06:11:42.118Z,96.40
2019-02-14T06:13:47.433Z,96.10
2019-02-14T06:15:51.214Z,96.20
2019-02-14T06:17:54.930Z,96.40
2019-02-14T06:19:58.868Z,96.30
2019-02-14T06:22:02.698Z,96.30
2019-02-14T06:24:06.592Z,96.40
2019-02-14T06:26:10.371Z,96.20
2019-02-14T06:28:15.807Z,96.20
2019-02-14T06:30:19.822Z,96.40
2019-02-14T06:32:23.749Z,95.90
2019-02-14T06:34:27.706Z,95.90
2019-02-14T06:36:33.713Z,96.00
2019-02-14T06:38:37.226Z,96.20
2019-02-14T06:40:41.198Z,96.10
2019-02-14T06:42:45.122Z,96.10
2019-02-14T06:44:48.915Z,96.10
2019-02-14T06:46:52.861Z,95.90
2019-02-14T06:48:56.686Z,95.80
2019-02-14T06:51:00.665Z,96.00
2019-02-14T06:53:04.547Z,95.80
2019-02-14T06:55:09.884Z,95.80
2019-02-14T06:57:13.729Z,95.40
2019-02-14T06:59:17.579Z,95.60
2019-02-14T07:01:21.458Z,95.40
2019-02-14T07:03:25.381Z,95.60
2019-02-14T07:05:29.382Z,95.40
2019-02-14T07:07:33.286Z,95.60
2019-02-14T07:09:37.186Z,95.80
2019-02-14T07:11:41.106Z,95.90
2019-02-14T07:13:45.023Z,95.70
2019-02-14T07:15:48.918Z,96.10
2019-02-14T07:17:54.354Z,96.10
2019-02-14T07:19:58.236Z,96.00
2019-02-14T07:22:02.148Z,96.00
2019-02-14T07:24:06.003Z,96.00
2019-02-14T07:26:09.922Z,96.20
2019-02-14T07:28:13.914Z,95.80
2019-02-14T07:30:20.613Z,95.60
2019-02-14T07:32:24.542Z,95.70
2019-02-14T07:34:28.660Z,95.80
2019-02-14T07:36:32.584Z,95.80
2019-02-14T07:38:36.619Z,96.00
2019-02-14T07:40:40.641Z,96.10
2019-02-14T07:42:44.529Z,96.10
2019-02-14T07:44:48.385Z,95.90
2019-02-14T07:46:52.352Z,96.10
2019-02-14T07:48:56.269Z,96.10
2019-02-14T07:51:00.244Z,96.30
2019-02-14T07:53:04.259Z,96.20
2019-02-14T07:55:15.658Z,96.30
2019-02-14T07:57:19.699Z,96.40
2019-02-14T07:59:23.559Z,96.30
2019-02-14T08:01:27.466Z,96.40
2019-02-14T08:03:31.337Z,96.20
2019-02-14T08:05:37.808Z,96.40
2019-02-14T08:07:42.543Z,99.90
2019-02-14T08:09:46.402Z,99.90
2019-02-14T08:11:50.310Z,99.90
2019-02-14T08:13:54.138Z,99.90
2019-02-14T08:15:58.016Z,99.90
2019-02-14T08:18:03.500Z,99.90
2019-02-14T08:20:13.053Z,89.90
2019-02-14T08:22:16.820Z,65.10
2019-02-14T08:24:20.676Z,46.40
2019-02-14T08:26:24.497Z,37.70
2019-02-14T08:28:31.269Z,34.10
2019-02-14T08:30:35.148Z,29.40
2019-02-14T08:32:39.083Z,27.20
2019-02-14T08:34:42.943Z,22.10
2019-02-14T08:36:47.671Z,19.50
2019-02-14T08:38:51.640Z,16.50
2019-02-14T08:40:55.520Z,16.90
2019-02-14T08:42:59.469Z,15.40
2019-02-14T08:45:04.067Z,12.60
2019-02-14T08:47:07.956Z,16.60
2019-02-14T08:49:11.875Z,12.70
2019-02-14T08:51:17.854Z,15.50
2019-02-14T08:53:21.799Z,12.80
2019-02-14T08:55:25.700Z,13.70
2019-02-14T08:57:29.627Z,12.40
2019-02-14T08:59:33.444Z,20.00
2019-02-14T09:01:37.327Z,15.70
2019-02-14T09:03:41.235Z,17.20
2019-02-14T09:05:45.110Z,12.50
2019-02-14T09:07:54.660Z,9.10
2019-02-14T09:09:54.643Z,8.50
2019-02-14T09:11:58.601Z,11.70
2019-02-14T09:14:02.434Z,8.20
2019-02-14T09:16:06.463Z,7.40
2019-02-14T09:18:10.426Z,5.60
2019-02-14T09:20:16.012Z,5.40
2019-02-14T09:22:19.916Z,4.30
2019-02-14T09:24:23.867Z,4.60
2019-02-14T09:26:27.773Z,2.70
2019-02-14T09:28:31.795Z,2.10
2019-02-14T09:30:35.570Z,1.00
2019-02-14T09:32:39.833Z,1.00
2019-02-14T09:34:43.648Z,1.00
2019-02-14T09:36:47.527Z,2.10
2019-02-14T09:38:53.017Z,1.00
2019-02-14T09:40:56.925Z,1.00
2019-02-14T09:43:02.889Z,1.00
2019-02-14T09:45:09.451Z,1.30
2019-02-14T09:47:13.343Z,1.00
2019-02-14T09:49:17.278Z,1.00
2019-02-14T09:51:21.116Z,1.00
2019-02-14T09:53:25.100Z,1.00
2019-02-14T09:55:28.936Z,1.00
2019-02-14T09:57:32.723Z,1.00
2019-02-14T09:59:36.610Z,1.00
2019-02-14T10:01:40.500Z,1.00
2019-02-14T10:03:44.380Z,1.00
2019-02-14T10:05:48.499Z,1.00
2019-02-14T10:07:52.702Z,1.00
2019-02-14T10:09:56.723Z,1.00
2019-02-14T10:12:00.692Z,1.00
2019-02-14T10:14:04.506Z,1.00
2019-02-14T10:16:08.389Z,1.00
2019-02-14T10:18:12.341Z,1.00
2019-02-14T10:20:17.434Z,1.00
2019-02-14T10:22:21.361Z,1.00
2019-02-14T10:24:25.243Z,1.00
2019-02-14T10:26:29.125Z,3.10
2019-02-14T10:28:32.953Z,1.00
2019-02-14T10:30:36.836Z,1.70
2019-02-14T10:32:40.707Z,1.00
2019-02-14T10:34:44.631Z,1.00
2019-02-14T10:36:48.452Z,1.00
2019-02-14T10:38:52.266Z,1.00
2019-02-14T10:40:56.119Z,1.00
2019-02-14T10:42:59.973Z,1.00
2019-02-14T10:45:05.027Z,1.00
2019-02-14T10:47:08.880Z,1.00
2019-02-14T10:49:14.007Z,1.00
2019-02-14T10:51:17.864Z,1.00
2019-02-14T10:53:21.647Z,1.00
2019-02-14T10:55:25.539Z,1.00
2019-02-14T10:57:33.348Z,1.00
2019-02-14T10:59:34.664Z,1.00
2019-02-14T11:01:38.630Z,1.00
2019-02-14T11:03:42.477Z,1.00
2019-02-14T11:05:46.380Z,1.00
2019-02-14T11:07:50.166Z,1.00
2019-02-14T11:09:54.017Z,1.00
2019-02-14T11:11:57.846Z,1.00
2019-02-14T11:14:01.706Z,1.00
2019-02-14T11:16:06.171Z,1.00
2019-02-14T11:18:10.536Z,1.00
2019-02-14T11:20:17.954Z,1.00
2019-02-14T11:22:22.017Z,1.00
2019-02-14T11:24:25.975Z,1.00
2019-02-14T11:26:29.808Z,1.00
2019-02-14T11:28:35.246Z,1.00
2019-02-14T11:30:39.023Z,1.00
2019-02-14T11:32:42.818Z,1.00
2019-02-14T11:34:46.654Z,1.00
2019-02-14T11:36:50.527Z,1.00
2019-02-14T11:38:54.298Z,1.00
2019-02-14T11:40:58.097Z,1.00
2019-02-14T11:43:02.863Z,1.00
2019-02-14T11:45:09.991Z,1.00
2019-02-14T11:47:13.838Z,1.00
2019-02-14T11:49:17.540Z,1.00
2019-02-14T11:51:25.905Z,1.00
2019-02-14T11:53:29.915Z,1.00
2019-02-14T11:55:33.689Z,1.00
2019-02-14T11:57:37.534Z,1.00
2019-02-14T11:59:41.422Z,1.00
2019-02-14T12:01:54.976Z,1.00
2019-02-14T12:03:51.599Z,1.00
2019-02-14T12:05:55.465Z,1.00
2019-02-14T12:07:59.373Z,1.00
2019-02-14T12:10:03.236Z,1.00
2019-02-14T12:12:07.159Z,1.00
2019-02-14T12:14:12.612Z,1.00
2019-02-14T12:16:16.577Z,1.00
2019-02-14T12:18:20.441Z,1.00
2019-02-14T12:20:24.373Z,1.00
2019-02-14T12:22:29.371Z,1.00
2019-02-14T12:24:33.250Z,1.00
2019-02-14T12:26:37.198Z,1.00
2019-02-14T12:28:41.047Z,1.00
2019-02-14T12:30:45.011Z,1.00
2019-02-14T12:32:48.798Z,1.00
2019-02-14T12:34:52.650Z,1.00
2019-02-14T12:36:56.649Z,1.00
2019-02-14T12:39:08.292Z,1.00
2019-02-14T12:41:06.071Z,1.00
2019-02-14T12:43:10.017Z,1.00
2019-02-14T12:45:20.466Z,1.00
2019-02-14T12:47:22.286Z,1.00
2019-02-14T12:49:26.132Z,1.00
2019-02-14T12:51:30.080Z,1.00
2019-02-14T12:53:34.050Z,1.00
2019-02-14T12:55:37.772Z,1.00
2019-02-14T12:57:41.986Z,1.00
2019-02-14T12:59:45.766Z,1.00
2019-02-14T13:01:49.643Z,1.00
2019-02-14T13:03:53.551Z,1.00
2019-02-14T13:05:57.462Z,1.00
2019-02-14T13:08:01.335Z,1.00
2019-02-14T13:10:21.324Z,1.00
2019-02-14T13:12:25.226Z,1.00
2019-02-14T13:14:29.185Z,1.00
2019-02-14T13:16:33.008Z,1.00
2019-02-14T13:18:36.903Z,1.00
2019-02-14T13:20:40.764Z,1.00
2019-02-14T13:22:44.544Z,1.00
2019-02-14T13:24:48.163Z,1.00
2019-02-14T13:26:51.818Z,1.00
2019-02-14T13:28:55.523Z,1.00
2019-02-14T13:30:59.336Z,1.00
2019-02-14T13:33:03.235Z,1.00
2019-02-14T13:35:07.155Z,1.00
2019-02-14T13:37:10.825Z,1.00
2019-02-14T13:39:14.430Z,1.00
2019-02-14T13:41:18.258Z,1.00
2019-02-14T13:43:21.983Z,1.00
2019-02-14T13:45:25.682Z,1.00
2019-02-14T13:47:29.298Z,1.00
2019-02-14T13:49:33.071Z,1.00
2019-02-14T13:51:36.707Z,1.00
2019-02-14T13:53:40.483Z,1.00
2019-02-14T13:55:44.269Z,1.00
2019-02-14T13:57:47.994Z,1.00
2019-02-14T13:59:51.803Z,1.00
2019-02-14T14:01:55.543Z,1.00
2019-02-14T14:03:59.310Z,1.00
2019-02-14T14:06:03.090Z,1.00
2019-02-14T14:08:06.700Z,1.00
2019-02-14T14:10:10.625Z,1.00
2019-02-14T14:12:14.291Z,1.00
2019-02-14T14:14:18.004Z,1.00
2019-02-14T14:16:22.129Z,1.00
2019-02-14T14:18:26.891Z,1.00
2019-02-14T14:20:30.990Z,1.00
2019-02-14T14:22:34.624Z,1.00
2019-02-14T14:24:39.350Z,1.00
2019-02-14T14:26:45.319Z,1.00
2019-02-14T14:28:48.784Z,1.00
2019-02-14T14:30:52.363Z,1.00
2019-02-14T14:32:56.017Z,1.00
2019-02-14T14:34:59.791Z,1.00
2019-02-14T14:37:03.438Z,1.00
2019-02-14T14:39:07.288Z,1.00
2019-02-14T14:41:10.908Z,1.00
2019-02-14T14:43:16.157Z,1.00
2019-02-14T14:45:28.407Z,1.00
2019-02-14T14:47:32.112Z,1.00
2019-02-14T14:49:35.862Z,1.00
2019-02-14T14:51:39.519Z,1.00
2019-02-14T14:53:44.693Z,1.00
2019-02-14T14:55:48.382Z,1.00
2019-02-14T14:57:52.100Z,1.00
2019-02-14T14:59:55.867Z,1.00
2019-02-14T15:01:59.534Z,1.00
2019-02-14T15:04:03.107Z,1.00
2019-02-14T15:06:06.903Z,1.00
2019-02-14T15:08:10.474Z,1.00
2019-02-14T15:10:14.154Z,1.00
2019-02-14T15:12:17.812Z,1.00
2019-02-14T15:14:21.454Z,1.00
2019-02-14T15:16:25.152Z,1.00
2019-02-14T15:18:28.897Z,1.00
2019-02-14T15:20:33.711Z,1.00
2019-02-14T15:22:37.458Z,1.00
2019-02-14T15:24:41.188Z,1.00
2019-02-14T15:26:46.233Z,1.00
2019-02-14T15:28:51.319Z,1.00
2019-02-14T15:30:55.015Z,1.00
2019-02-14T15:32:58.639Z,1.00
2019-02-14T15:35:02.446Z,1.00
2019-02-14T15:37:06.210Z,1.00
2019-02-14T15:39:09.862Z,1.00
2019-02-14T15:41:13.611Z,1.00
2019-02-14T15:43:17.371Z,1.00
2019-02-14T15:45:21.176Z,1.00
2019-02-14T15:47:24.868Z,1.00
2019-02-14T15:49:28.437Z,1.00
2019-02-14T15:51:32.040Z,1.00
2019-02-14T15:53:38.892Z,1.00
2019-02-14T15:55:43.857Z,1.00
2019-02-14T15:57:47.522Z,1.00
2019-02-14T15:59:51.194Z,1.00
2019-02-14T16:01:54.922Z,1.00
2019-02-14T16:03:58.505Z,1.00
2019-02-14T16:06:03.985Z,1.00
2019-02-14T16:08:07.764Z,1.00
2019-02-14T16:10:18.207Z,1.00
2019-02-14T16:12:17.398Z,1.00
2019-02-14T16:14:23.870Z,1.00
2019-02-14T16:16:27.652Z,1.00
2019-02-14T16:18:33.079Z,1.00
2019-02-14T16:20:36.621Z,1.00
2019-02-14T16:22:41.975Z,1.00
2019-02-14T16:24:49.126Z,1.00
2019-02-14T16:26:59.068Z,1.00
2019-02-14T16:29:03.746Z,1.00
2019-02-14T16:31:07.584Z,1.00
2019-02-14T16:33:11.912Z,1.00
2019-02-14T16:35:15.719Z,1.00
2019-02-14T16:37:19.823Z,1.00
2019-02-14T16:39:25.808Z,1.00
2019-02-14T16:41:32.282Z,1.00
2019-02-14T16:43:37.524Z,1.00
2019-02-14T16:45:43.306Z,1.00
2019-02-14T16:47:47.425Z,1.30
2019-02-14T16:49:51.065Z,1.20
2019-02-14T16:51:55.397Z,1.40
2019-02-14T16:53:59.119Z,1.10
2019-02-14T16:56:02.847Z,1.10
2019-02-14T16:58:08.246Z,1.50
2019-02-14T17:00:12.780Z,1.50
2019-02-14T17:02:16.489Z,1.90
2019-02-14T17:04:20.130Z,1.80
2019-02-14T17:06:23.948Z,2.50
2019-02-14T17:08:32.080Z,3.30
2019-02-14T17:10:37.335Z,3.90
2019-02-14T17:12:43.133Z,4.80
2019-02-14T17:14:47.661Z,5.10
2019-02-14T17:16:53.449Z,5.80
2019-02-14T17:18:58.076Z,6.50
2019-02-14T17:21:03.001Z,6.90
2019-02-14T17:23:06.846Z,7.10
2019-02-14T17:25:10.579Z,7.80
2019-02-14T17:27:14.269Z,7.80
2019-02-14T17:29:19.803Z,8.00
2019-02-14T17:31:24.217Z,7.70
2019-02-14T17:33:28.038Z,8.50
2019-02-14T17:35:31.691Z,8.40
2019-02-14T17:37:35.416Z,8.80
2019-02-14T17:39:39.045Z,9.00
2019-02-14T17:41:42.663Z,9.60
2019-02-14T17:43:46.415Z,9.70
2019-02-14T17:45:50.171Z,10.30
2019-02-14T17:47:53.862Z,11.00
2019-02-14T17:49:57.607Z,10.20
2019-02-14T17:52:01.407Z,10.40
2019-02-14T17:54:05.084Z,10.20
2019-02-14T17:56:08.811Z,10.50
2019-02-14T17:58:12.489Z,11.00
2019-02-14T18:00:16.306Z,10.60
2019-02-14T18:02:20.160Z,11.00
2019-02-14T18:04:25.668Z,10.80
2019-02-14T18:06:29.363Z,10.90
2019-02-14T18:08:33.029Z,11.00
2019-02-14T18:10:36.790Z,11.10
2019-02-14T18:12:40.703Z,11.10
2019-02-14T18:14:44.735Z,11.00
2019-02-14T18:16:48.838Z,11.80
2019-02-14T18:18:53.014Z,11.60
2019-02-14T18:20:56.855Z,11.90
2019-02-14T18:23:01.171Z,11.70
2019-02-14T18:25:09.252Z,12.10
2019-02-14T18:27:13.998Z,11.90
2019-02-14T18:29:18.168Z,13.10
2019-02-14T18:31:22.201Z,12.40
2019-02-14T18:33:26.048Z,13.80
2019-02-14T18:35:31.131Z,13.70
2019-02-14T18:37:36.060Z,13.10
2019-02-14T18:39:39.816Z,13.40
2019-02-14T18:41:43.534Z,13.90
2019-02-14T18:43:47.253Z,13.80
2019-02-14T18:45:50.893Z,13.90
2019-02-14T18:47:58.648Z,14.30
2019-02-14T18:50:01.376Z,15.20
2019-02-14T18:52:06.228Z,15.30
2019-02-14T18:54:12.129Z,15.80
2019-02-14T18:56:17.913Z,16.70
2019-02-14T18:58:26.431Z,17.10
2019-02-14T19:00:29.861Z,17.20
2019-02-14T19:02:33.988Z,19.20
2019-02-14T19:04:38.272Z,19.00
2019-02-14T19:06:45.442Z,19.80
2019-02-14T19:08:53.385Z,19.80
2019-02-14T19:10:58.780Z,20.10
2019-02-14T19:13:07.884Z,20.00
2019-02-14T19:15:14.349Z,20.10
2019-02-14T19:17:20.830Z,20.10
2019-02-14T19:19:25.819Z,20.30
2019-02-14T19:21:31.034Z,20.80
2019-02-14T19:23:35.299Z,21.00
2019-02-14T19:25:40.471Z,21.40
2019-02-14T19:27:51.975Z,21.00
2019-02-14T19:29:57.467Z,21.50
2019-02-14T19:32:02.440Z,21.80
2019-02-14T19:34:10.492Z,21.40
2019-02-14T19:36:16.564Z,21.90
2019-02-14T19:38:24.408Z,21.90
2019-02-14T19:40:31.016Z,22.20
2019-02-14T19:42:37.960Z,22.40
2019-02-14T19:44:41.601Z,22.70
2019-02-14T19:46:45.229Z,23.00
2019-02-14T19:48:49.159Z,23.00
2019-02-14T19:50:53.044Z,23.10
2019-02-14T19:52:56.781Z,23.50
2019-02-14T19:55:01.668Z,23.10
2019-02-14T19:57:06.144Z,24.10
2019-02-14T19:59:11.485Z,23.90
2019-02-14T20:01:16.272Z,24.30
2019-02-14T20:03:20.559Z,24.20
2019-02-14T20:05:24.651Z,24.70
2019-02-14T20:07:29.225Z,24.50
2019-02-14T20:09:32.969Z,25.00
2019-02-14T20:11:37.538Z,25.20
2019-02-14T20:13:49.344Z,25.50
2019-02-14T20:15:46.641Z,26.30
2019-02-14T20:17:50.370Z,26.70
2019-02-14T20:19:55.085Z,26.80
2019-02-14T20:22:00.248Z,26.50
2019-02-14T20:24:06.992Z,26.90
2019-02-14T20:26:12.441Z,27.10
2019-02-14T20:28:17.283Z,27.70
2019-02-14T20:30:21.116Z,27.30
2019-02-14T20:32:24.908Z,27.70
2019-02-14T20:34:29.055Z,28.50
2019-02-14T20:36:32.699Z,28.30
2019-02-14T20:38:37.010Z,28.50
2019-02-14T20:40:40.724Z,28.70
2019-02-14T20:42:45.043Z,28.70
2019-02-14T20:44:48.777Z,28.60
2019-02-14T20:46:53.002Z,28.90
2019-02-14T20:48:58.831Z,29.30
2019-02-14T20:51:02.485Z,29.80
2019-02-14T20:53:08.778Z,29.70
2019-02-14T20:55:15.450Z,30.00
2019-02-14T20:57:19.887Z,30.30
2019-02-14T20:59:24.526Z,30.80
2019-02-14T21:01:28.831Z,30.80
2019-02-14T21:03:32.532Z,31.00
2019-02-14T21:05:36.651Z,32.00
2019-02-14T21:07:40.931Z,31.70
2019-02-14T21:09:46.126Z,32.00
2019-02-14T21:11:54.758Z,32.40
2019-02-14T21:13:57.132Z,33.30
2019-02-14T21:16:01.682Z,33.40
2019-02-14T21:18:06.176Z,33.80
2019-02-14T21:20:15.437Z,33.80
2019-02-14T21:22:20.051Z,33.80
2019-02-14T21:24:24.865Z,34.20
2019-02-14T21:26:29.288Z,35.20
2019-02-14T21:28:33.579Z,34.00
2019-02-14T21:30:37.658Z,34.70
2019-02-14T21:32:42.284Z,34.80
2019-02-14T21:34:46.647Z,34.00
2019-02-14T21:36:50.274Z,34.50
2019-02-14T21:38:55.646Z,35.00
2019-02-14T21:40:59.468Z,34.70
2019-02-14T21:43:03.311Z,34.40
2019-02-14T21:45:10.114Z,35.60
2019-02-14T21:47:14.514Z,36.10
2019-02-14T21:49:18.254Z,36.50
2019-02-14T21:51:22.138Z,36.60
2019-02-14T21:53:26.230Z,37.20
2019-02-14T21:55:33.649Z,37.70
2019-02-14T21:57:37.024Z,39.10
2019-02-14T21:59:40.743Z,39.40
2019-02-14T22:01:44.403Z,39.30
2019-02-14T22:03:54.375Z,39.70
2019-02-14T22:05:55.695Z,40.20
2019-02-14T22:07:59.810Z,40.00
2019-02-14T22:10:11.667Z,40.10
2019-02-14T22:12:38.188Z,40.70
2019-02-14T22:14:27.026Z,41.10
2019-02-14T22:16:30.672Z,41.40
2019-02-14T22:18:34.249Z,42.00
2019-02-14T22:20:39.054Z,41.80
2019-02-14T22:22:43.716Z,41.80
2019-02-14T22:24:47.991Z,41.30
2019-02-14T22:26:51.645Z,41.50
2019-02-14T22:28:55.309Z,41.60
2019-02-14T22:31:00.037Z,41.60
2019-02-14T22:33:07.160Z,42.60
2019-02-14T22:35:15.238Z,43.10
2019-02-14T22:37:18.982Z,42.70
2019-02-14T22:39:22.701Z,43.20
2019-02-14T22:41:31.550Z,44.00
2019-02-14T22:43:35.317Z,44.00
2019-02-14T22:45:40.059Z,43.40
2019-02-14T22:47:44.869Z,43.30
2019-02-14T22:49:48.584Z,43.70
2019-02-14T22:51:54.640Z,44.50
2019-02-14T22:53:59.056Z,45.40
2019-02-14T22:56:02.759Z,46.60
2019-02-14T22:58:06.777Z,47.50
2019-02-14T23:00:32.927Z,46.60
2019-02-14T23:02:36.704Z,46.70
2019-02-14T23:04:40.338Z,46.90
2019-02-14T23:06:44.024Z,47.70
2019-02-14T23:08:47.701Z,48.40
2019-02-14T23:10:51.405Z,49.40
2019-02-14T23:12:56.410Z,49.70
2019-02-14T23:15:01.521Z,50.00
2019-02-14T23:17:07.472Z,50.60
2019-02-14T23:19:11.203Z,51.20
2019-02-14T23:21:14.876Z,50.90
2019-02-14T23:23:18.484Z,51.40
2019-02-14T23:25:22.208Z,52.80
2019-02-14T23:27:25.843Z,53.30
2019-02-14T23:29:29.514Z,53.80
2019-02-14T23:31:33.223Z,54.70
2019-02-14T23:33:36.865Z,56.00
2019-02-14T23:35:40.589Z,56.90
2019-02-14T23:37:44.237Z,57.00
2019-02-14T23:39:47.934Z,58.30
2019-02-14T23:41:52.261Z,59.40
2019-02-14T23:43:56.982Z,59.30
2019-02-14T23:46:00.611Z,60.00
2019-02-14T23:48:04.338Z,60.10
2019-02-14T23:50:10.329Z,59.40
2019-02-14T23:52:14.132Z,60.90
2019-02-14T23:54:17.870Z,61.50
2019-02-14T23:56:21.500Z,61.70
2019-02-14T23:58:25.446Z,61.70
